Terminal Aerodrome Forecast
Issued by NWS

Home | Current Version | Previous Version | Text Only | Print | Product List | Glossary On
Versions: 1 2 3 4 5 6 7 8 9 10 11 12 13 14 15 16 17
033
FTUS41 KCAR 172320
TAFPQI
TAF
KPQI 172320Z 1800/1824 32007KT P6SM SCT050
     FM181800 VRB03KT P6SM BKN025
     FM181900 20004KT P6SM BKN070
     FM182000 21004KT P6SM VCSH BKN070=

USA.gov is the U.S. government's official web portal to all federal, state and local government web resources and services.